createdAt,value
2023-05-14T00:00:13.784Z,4.70
2023-05-14T00:03:15.268Z,4.67
2023-05-14T00:06:16.693Z,4.47
2023-05-14T00:09:17.996Z,4.75
2023-05-14T00:12:19.307Z,4.80
2023-05-14T00:15:20.637Z,4.40
2023-05-14T00:18:21.998Z,4.50
2023-05-14T00:21:23.313Z,4.78
2023-05-14T00:24:24.618Z,4.60
2023-05-14T00:27:25.917Z,5.13
2023-05-14T00:30:27.245Z,4.53
2023-05-14T00:33:28.542Z,4.63
2023-05-14T00:36:29.826Z,4.68
2023-05-14T00:39:31.099Z,4.65
2023-05-14T00:42:32.410Z,4.50
2023-05-14T00:45:33.693Z,4.40
2023-05-14T00:48:34.999Z,4.23
2023-05-14T00:51:36.280Z,5.22
2023-05-14T00:54:37.588Z,4.20
2023-05-14T00:57:38.903Z,4.50
2023-05-14T01:00:40.251Z,4.28
2023-05-14T01:03:41.625Z,4.90
2023-05-14T01:06:42.990Z,4.47
2023-05-14T01:09:44.282Z,4.82
2023-05-14T01:12:45.597Z,3.88
2023-05-14T01:15:46.899Z,4.43
2023-05-14T01:18:48.251Z,4.43
2023-05-14T01:21:49.549Z,4.03
2023-05-14T01:24:50.889Z,4.45
2023-05-14T01:27:52.179Z,4.30
2023-05-14T01:30:53.525Z,4.35
2023-05-14T01:33:54.853Z,4.23
2023-05-14T01:36:56.160Z,3.85
2023-05-14T01:39:57.469Z,4.60
2023-05-14T01:42:58.818Z,3.83
2023-05-14T01:46:00.447Z,4.50
2023-05-14T01:49:01.809Z,3.93
2023-05-14T01:52:03.122Z,4.47
2023-05-14T01:55:04.451Z,4.38
2023-05-14T01:58:05.761Z,4.07
2023-05-14T02:01:07.097Z,4.30
2023-05-14T02:04:08.485Z,3.97
2023-05-14T02:07:09.778Z,3.95
2023-05-14T02:10:11.091Z,4.57
2023-05-14T02:13:12.402Z,3.78
2023-05-14T02:16:13.757Z,3.90
2023-05-14T02:19:15.219Z,3.87
2023-05-14T02:22:16.658Z,3.92
2023-05-14T02:25:17.961Z,3.70
2023-05-14T02:28:19.413Z,4.15
2023-05-14T02:31:20.745Z,3.95
2023-05-14T02:34:22.108Z,3.87
2023-05-14T02:37:23.404Z,3.90
2023-05-14T02:40:24.948Z,3.83
2023-05-14T02:43:26.465Z,3.53
2023-05-14T02:46:27.861Z,4.43
2023-05-14T02:49:29.214Z,3.40
2023-05-14T02:52:30.548Z,3.55
2023-05-14T02:55:31.868Z,3.78
2023-05-14T02:58:33.197Z,3.78
2023-05-14T03:01:34.509Z,3.28
2023-05-14T03:04:36.135Z,3.43
2023-05-14T03:07:37.440Z,3.92
2023-05-14T03:10:38.726Z,3.35
2023-05-14T03:13:40.063Z,3.75
2023-05-14T03:16:41.387Z,3.85
2023-05-14T03:19:42.736Z,3.23
2023-05-14T03:22:44.031Z,2.97
2023-05-14T03:25:45.322Z,3.67
2023-05-14T03:28:46.632Z,4.32
2023-05-14T03:31:47.937Z,3.50
2023-05-14T03:34:49.227Z,3.70
2023-05-14T03:37:50.524Z,3.80
2023-05-14T03:40:51.869Z,3.70
2023-05-14T03:43:53.166Z,3.47
2023-05-14T03:46:54.461Z,3.10
2023-05-14T03:49:55.774Z,3.20
2023-05-14T03:52:57.068Z,3.10
2023-05-14T03:55:58.372Z,3.85
2023-05-14T03:58:59.656Z,3.70
2023-05-14T04:02:01.006Z,3.80
2023-05-14T04:05:02.333Z,3.47
2023-05-14T04:08:03.641Z,3.53
2023-05-14T04:11:04.950Z,3.88
2023-05-14T04:14:06.247Z,2.75
2023-05-14T04:17:07.572Z,3.80
2023-05-14T04:20:08.904Z,3.37
2023-05-14T04:23:10.204Z,3.20
2023-05-14T04:26:11.488Z,3.00
2023-05-14T04:29:12.798Z,3.38
2023-05-14T04:32:14.075Z,3.47
2023-05-14T04:35:15.400Z,2.87
2023-05-14T04:38:16.686Z,3.08
2023-05-14T04:41:17.992Z,3.67
2023-05-14T04:44:19.284Z,3.53
2023-05-14T04:47:20.648Z,3.53
2023-05-14T04:50:22.198Z,3.27
2023-05-14T04:53:23.829Z,3.70
2023-05-14T04:56:25.138Z,3.92
2023-05-14T04:59:26.426Z,3.78
2023-05-14T05:02:27.790Z,3.63
2023-05-14T05:05:29.115Z,3.07
2023-05-14T05:08:30.419Z,2.60
2023-05-14T05:11:31.700Z,3.63
2023-05-14T05:14:33.018Z,3.55
2023-05-14T05:17:34.409Z,3.50
2023-05-14T05:20:35.864Z,3.30
2023-05-14T05:23:37.161Z,3.17
2023-05-14T05:26:38.467Z,2.70
2023-05-14T05:29:39.783Z,2.88
2023-05-14T05:32:41.094Z,2.72
2023-05-14T05:35:42.409Z,3.03
2023-05-14T05:38:43.699Z,3.72
2023-05-14T05:41:44.999Z,2.97
2023-05-14T05:44:46.312Z,2.95
2023-05-14T05:47:47.646Z,3.35
2023-05-14T05:50:48.965Z,3.17
2023-05-14T05:53:50.266Z,3.53
2023-05-14T05:56:51.608Z,3.13
2023-05-14T05:59:52.919Z,3.40
2023-05-14T06:02:54.292Z,3.28
2023-05-14T06:05:55.636Z,2.70
2023-05-14T06:08:56.926Z,3.15
2023-05-14T06:11:58.208Z,3.30
2023-05-14T06:14:59.527Z,3.10
2023-05-14T06:18:00.868Z,3.40
2023-05-14T06:21:02.187Z,2.43
2023-05-14T06:24:03.511Z,3.55
2023-05-14T06:27:04.810Z,3.08
2023-05-14T06:30:06.137Z,3.40
2023-05-14T06:33:07.438Z,3.42
2023-05-14T06:36:08.805Z,3.27
2023-05-14T06:39:10.132Z,2.65
2023-05-14T06:42:11.431Z,3.05
2023-05-14T06:45:12.756Z,2.75
2023-05-14T06:48:14.124Z,3.40
2023-05-14T06:51:15.468Z,2.50
2023-05-14T06:54:16.763Z,3.50
2023-05-14T06:57:18.068Z,2.63
2023-05-14T07:00:19.699Z,2.70
2023-05-14T07:03:21.004Z,2.72
2023-05-14T07:06:22.303Z,2.90
2023-05-14T07:09:23.641Z,3.28
2023-05-14T07:12:24.935Z,3.00
2023-05-14T07:15:26.243Z,3.67
2023-05-14T07:18:27.578Z,3.17
2023-05-14T07:21:28.967Z,3.30
2023-05-14T07:24:30.284Z,3.22
2023-05-14T07:27:31.614Z,2.90
2023-05-14T07:30:32.899Z,3.40
2023-05-14T07:33:34.208Z,2.90
2023-05-14T07:36:35.490Z,3.40
2023-05-14T07:39:36.785Z,3.30
2023-05-14T07:42:38.081Z,2.78
2023-05-14T07:45:39.378Z,3.15
2023-05-14T07:48:40.804Z,3.00
2023-05-14T07:51:42.137Z,2.90
2023-05-14T07:54:43.455Z,2.75
2023-05-14T07:57:44.743Z,2.95
2023-05-14T08:00:46.042Z,3.65
2023-05-14T08:03:47.489Z,3.40
2023-05-14T08:06:48.891Z,3.33
2023-05-14T08:09:50.188Z,2.78
2023-05-14T08:12:51.498Z,2.92
2023-05-14T08:15:52.802Z,3.33
2023-05-14T08:18:54.216Z,3.30
2023-05-14T08:21:55.580Z,3.27
2023-05-14T08:24:56.885Z,2.72
2023-05-14T08:27:58.205Z,3.30
2023-05-14T08:30:59.529Z,3.25
2023-05-14T08:34:00.827Z,2.60
2023-05-14T08:37:02.132Z,2.80
2023-05-14T08:40:03.439Z,2.95
2023-05-14T08:43:04.747Z,3.10
2023-05-14T08:46:06.063Z,2.75
2023-05-14T08:49:07.497Z,3.35
2023-05-14T08:52:08.848Z,2.63
2023-05-14T08:55:10.154Z,2.90
2023-05-14T08:58:11.468Z,3.35
2023-05-14T09:01:12.756Z,2.63
2023-05-14T09:04:14.161Z,3.00
2023-05-14T09:07:15.500Z,2.57
2023-05-14T09:10:16.846Z,2.75
2023-05-14T09:13:18.121Z,2.65
2023-05-14T09:16:19.494Z,3.20
2023-05-14T09:19:20.863Z,2.75
2023-05-14T09:22:22.228Z,3.17
2023-05-14T09:25:23.551Z,2.70
2023-05-14T09:28:24.837Z,2.30
2023-05-14T09:31:26.195Z,3.33
2023-05-14T09:34:27.544Z,3.10
2023-05-14T09:37:28.875Z,3.30
2023-05-14T09:40:30.251Z,3.00
2023-05-14T09:43:31.577Z,2.55
2023-05-14T09:46:32.875Z,2.55
2023-05-14T09:49:34.176Z,3.30
2023-05-14T09:52:35.488Z,3.33
2023-05-14T09:55:36.796Z,2.85
2023-05-14T09:58:38.077Z,3.17
2023-05-14T10:01:39.477Z,2.92
2023-05-14T10:04:40.872Z,3.15
2023-05-14T10:07:42.223Z,3.17
2023-05-14T10:10:43.552Z,2.83
2023-05-14T10:13:44.862Z,2.97
2023-05-14T10:16:46.249Z,2.53
2023-05-14T10:19:47.551Z,3.40
2023-05-14T10:22:48.856Z,2.87
2023-05-14T10:25:50.164Z,3.40
2023-05-14T10:28:51.462Z,2.80
2023-05-14T10:31:52.774Z,3.10
2023-05-14T10:34:54.112Z,2.50
2023-05-14T10:37:55.409Z,2.70
2023-05-14T10:40:56.707Z,3.00
2023-05-14T10:43:58.026Z,2.58
2023-05-14T10:46:59.374Z,2.72
2023-05-14T10:50:00.703Z,2.75
2023-05-14T10:53:02.027Z,2.70
2023-05-14T10:56:03.354Z,2.80
2023-05-14T10:59:04.668Z,3.28
2023-05-14T11:02:06.015Z,2.70
2023-05-14T11:05:07.383Z,3.00
2023-05-14T11:08:08.672Z,2.83
2023-05-14T11:11:09.993Z,2.80
2023-05-14T11:14:11.274Z,2.75
2023-05-14T11:17:12.676Z,2.55
2023-05-14T11:20:14.044Z,3.20
2023-05-14T11:23:15.350Z,3.20
2023-05-14T11:26:17.268Z,2.70
2023-05-14T11:29:19.580Z,2.55
2023-05-14T11:32:20.904Z,2.50
2023-05-14T11:35:22.276Z,2.72
2023-05-14T11:38:23.603Z,2.50
2023-05-14T11:41:24.938Z,3.03
2023-05-14T11:44:26.242Z,2.30
2023-05-14T11:47:27.612Z,2.88
2023-05-14T11:50:28.929Z,3.03
2023-05-14T11:53:30.247Z,2.43
2023-05-14T11:56:31.535Z,3.22
2023-05-14T11:59:32.849Z,2.53
2023-05-14T12:02:34.223Z,2.13
2023-05-14T12:05:35.565Z,3.17
2023-05-14T12:08:36.890Z,2.90
2023-05-14T12:11:38.240Z,2.42
2023-05-14T12:14:39.525Z,1.45
2023-05-14T12:17:40.911Z,2.80
2023-05-14T12:20:42.264Z,2.55
2023-05-14T12:23:43.586Z,2.57
2023-05-14T12:26:44.872Z,2.65
2023-05-14T12:29:46.192Z,2.80
2023-05-14T12:32:47.520Z,2.25
2023-05-14T12:35:48.829Z,2.70
2023-05-14T12:38:50.138Z,2.90
2023-05-14T12:41:51.482Z,2.80
2023-05-14T12:44:52.778Z,2.95
2023-05-14T12:47:54.165Z,2.47
2023-05-14T12:50:55.450Z,2.55
2023-05-14T12:53:56.773Z,2.53
2023-05-14T12:56:58.080Z,2.50
2023-05-14T12:59:59.390Z,2.13
2023-05-14T13:03:00.721Z,2.80
2023-05-14T13:06:02.033Z,2.65
2023-05-14T13:09:03.368Z,2.47
2023-05-14T13:12:04.704Z,2.90
2023-05-14T13:15:05.969Z,2.40
2023-05-14T13:18:07.319Z,2.20
2023-05-14T13:21:08.640Z,2.67
2023-05-14T13:24:09.966Z,1.70
2023-05-14T13:27:11.256Z,2.60
2023-05-14T13:30:12.565Z,2.30
2023-05-14T13:33:13.924Z,1.98
2023-05-14T13:36:15.393Z,2.63
2023-05-14T13:39:16.689Z,2.10
2023-05-14T13:42:17.981Z,2.38
2023-05-14T13:45:19.284Z,1.83
2023-05-14T13:48:20.597Z,2.05
2023-05-14T13:51:21.909Z,2.17
2023-05-14T13:54:23.221Z,2.40
2023-05-14T13:57:24.531Z,2.38
2023-05-14T14:00:25.834Z,2.63
2023-05-14T14:03:27.105Z,1.95
2023-05-14T14:06:28.420Z,2.10
2023-05-14T14:09:29.708Z,2.70
2023-05-14T14:12:31.064Z,2.65
2023-05-14T14:15:32.394Z,2.17
2023-05-14T14:18:33.703Z,2.20
2023-05-14T14:21:35.038Z,2.17
2023-05-14T14:24:36.339Z,1.90
2023-05-14T14:27:37.663Z,2.33
2023-05-14T14:30:38.971Z,2.40
2023-05-14T14:33:40.255Z,2.28
2023-05-14T14:36:41.574Z,1.88
2023-05-14T14:39:42.885Z,2.30
2023-05-14T14:42:44.202Z,2.03
2023-05-14T14:45:48.220Z,2.33
2023-05-14T14:48:50.426Z,2.08
2023-05-14T14:51:51.734Z,2.40
2023-05-14T14:54:53.043Z,2.53
2023-05-14T14:57:54.360Z,2.25
2023-05-14T15:00:55.726Z,2.22
2023-05-14T15:03:57.052Z,2.00
2023-05-14T15:06:58.389Z,2.13
2023-05-14T15:09:59.706Z,2.00
2023-05-14T15:13:01.022Z,1.45
2023-05-14T15:16:02.341Z,1.58
2023-05-14T15:19:03.709Z,2.13
2023-05-14T15:22:05.134Z,1.85
2023-05-14T15:25:06.463Z,2.30
2023-05-14T15:28:07.851Z,2.17
2023-05-14T15:31:09.245Z,2.17
2023-05-14T15:34:10.636Z,1.95
2023-05-14T15:37:11.986Z,1.98
2023-05-14T15:40:13.289Z,1.77
2023-05-14T15:43:14.674Z,2.08
2023-05-14T15:46:16.041Z,1.58
2023-05-14T15:49:17.384Z,1.60
2023-05-14T15:52:18.692Z,1.60
2023-05-14T15:55:20.029Z,1.80
2023-05-14T15:58:21.333Z,2.17
2023-05-14T16:01:22.611Z,1.90
2023-05-14T16:04:23.957Z,2.55
2023-05-14T16:07:25.300Z,1.60
2023-05-14T16:10:26.715Z,1.93
2023-05-14T16:13:28.229Z,1.70
2023-05-14T16:16:29.623Z,1.88
2023-05-14T16:19:30.981Z,1.88
2023-05-14T16:22:32.308Z,1.65
2023-05-14T16:25:33.613Z,2.10
2023-05-14T16:28:34.909Z,1.33
2023-05-14T16:31:36.276Z,1.85
2023-05-14T16:34:37.628Z,1.98
2023-05-14T16:37:39.231Z,1.98
2023-05-14T16:40:40.579Z,1.80
2023-05-14T16:43:41.908Z,1.45
2023-05-14T16:46:43.422Z,1.67
2023-05-14T16:49:44.772Z,1.58
2023-05-14T16:52:46.120Z,1.75
2023-05-14T16:55:47.401Z,2.00
2023-05-14T16:58:48.701Z,1.65
2023-05-14T17:01:50.109Z,1.70
2023-05-14T17:04:51.589Z,1.90
2023-05-14T17:07:52.979Z,1.77
2023-05-14T17:10:54.284Z,1.60
2023-05-14T17:13:55.600Z,1.77
2023-05-14T17:16:56.987Z,1.35
2023-05-14T17:19:58.282Z,1.85
2023-05-14T17:22:59.611Z,1.67
2023-05-14T17:26:00.921Z,1.73
2023-05-14T17:29:02.259Z,1.65
2023-05-14T17:32:03.722Z,1.73
2023-05-14T17:35:05.121Z,1.73
2023-05-14T17:38:06.635Z,1.50
2023-05-14T17:41:08.204Z,1.57
2023-05-14T17:44:12.003Z,1.65
2023-05-14T17:47:14.135Z,1.85
2023-05-14T17:50:15.473Z,1.40
2023-05-14T17:53:16.784Z,1.60
2023-05-14T17:56:18.121Z,2.03
2023-05-14T17:59:19.677Z,1.73
2023-05-14T18:02:21.355Z,2.05
2023-05-14T18:05:22.938Z,1.80
2023-05-14T18:08:24.745Z,1.92
2023-05-14T18:11:26.166Z,1.27
2023-05-14T18:14:27.761Z,1.23
2023-05-14T18:17:29.117Z,1.92
2023-05-14T18:20:31.586Z,1.60
2023-05-14T18:23:34.162Z,1.77
2023-05-14T18:26:35.529Z,1.90
2023-05-14T18:29:36.863Z,1.75
2023-05-14T18:32:38.453Z,1.23
2023-05-14T18:35:39.870Z,1.30
2023-05-14T18:38:41.258Z,1.80
2023-05-14T18:41:43.309Z,1.70
2023-05-14T18:44:44.683Z,1.60
2023-05-14T18:47:46.346Z,1.50
2023-05-14T18:50:47.697Z,0.95
2023-05-14T18:53:49.415Z,1.45
2023-05-14T18:56:50.918Z,1.50
2023-05-14T18:59:55.214Z,1.48
2023-05-14T19:02:56.766Z,2.15
2023-05-14T19:05:58.626Z,1.20
2023-05-14T19:09:00.124Z,1.13
2023-05-14T19:12:01.935Z,1.50
2023-05-14T19:15:03.700Z,1.73
2023-05-14T19:18:05.348Z,1.70
2023-05-14T19:21:06.763Z,1.50
2023-05-14T19:24:08.098Z,1.80
2023-05-14T19:27:09.465Z,1.07
2023-05-14T19:30:10.772Z,1.83
2023-05-14T19:33:12.509Z,1.33
2023-05-14T19:36:13.921Z,1.60
2023-05-14T19:39:15.251Z,1.88
2023-05-14T19:42:18.006Z,1.27
2023-05-14T19:45:20.672Z,1.27
2023-05-14T19:48:22.012Z,1.30
2023-05-14T19:51:23.297Z,1.35
2023-05-14T19:54:24.979Z,2.30
2023-05-14T19:57:26.437Z,1.70
2023-05-14T20:00:28.074Z,1.58
2023-05-14T20:03:29.666Z,1.77
2023-05-14T20:06:31.356Z,1.88
2023-05-14T20:09:32.744Z,2.22
2023-05-14T20:12:34.373Z,1.57
2023-05-14T20:15:35.820Z,1.90
2023-05-14T20:18:37.199Z,1.50
2023-05-14T20:21:38.591Z,1.70
2023-05-14T20:24:39.900Z,1.50
2023-05-14T20:27:41.246Z,1.40
2023-05-14T20:30:42.620Z,1.23
2023-05-14T20:33:44.119Z,1.42
2023-05-14T20:36:45.451Z,2.05
2023-05-14T20:39:46.805Z,2.00
2023-05-14T20:42:48.143Z,1.27
2023-05-14T20:45:49.432Z,1.95
2023-05-14T20:48:50.743Z,1.42
2023-05-14T20:51:52.034Z,1.67
2023-05-14T20:54:53.336Z,1.67
2023-05-14T20:57:54.628Z,1.17
2023-05-14T21:00:56.001Z,1.70
2023-05-14T21:03:57.632Z,1.50
2023-05-14T21:06:59.027Z,1.33
2023-05-14T21:10:00.343Z,1.60
2023-05-14T21:13:01.645Z,2.00
2023-05-14T21:16:03.120Z,1.55
2023-05-14T21:19:04.608Z,2.13
2023-05-14T21:22:05.952Z,1.83
2023-05-14T21:25:07.240Z,1.48
2023-05-14T21:28:08.553Z,1.23
2023-05-14T21:31:09.874Z,2.00
2023-05-14T21:34:11.184Z,1.65
2023-05-14T21:37:12.507Z,1.50
2023-05-14T21:40:13.808Z,1.35
2023-05-14T21:43:15.103Z,1.50
2023-05-14T21:46:16.386Z,1.50
2023-05-14T21:49:17.777Z,1.55
2023-05-14T21:52:19.065Z,1.90
2023-05-14T21:55:20.382Z,1.70
2023-05-14T21:58:21.679Z,1.30
2023-05-14T22:01:23.025Z,2.00
2023-05-14T22:04:24.409Z,1.90
2023-05-14T22:07:25.681Z,1.50
2023-05-14T22:10:27.017Z,2.35
2023-05-14T22:13:28.327Z,1.70
2023-05-14T22:16:29.756Z,1.42
2023-05-14T22:19:31.080Z,1.42
2023-05-14T22:22:32.401Z,1.60
2023-05-14T22:25:33.682Z,1.92
2023-05-14T22:28:34.975Z,1.70
2023-05-14T22:31:36.304Z,1.38
2023-05-14T22:34:37.633Z,1.75
2023-05-14T22:37:38.947Z,1.50
2023-05-14T22:40:40.243Z,1.48
2023-05-14T22:43:41.554Z,1.77
2023-05-14T22:46:42.858Z,1.58
2023-05-14T22:49:44.191Z,1.80
2023-05-14T22:52:45.512Z,1.65
2023-05-14T22:55:46.806Z,1.88
2023-05-14T22:58:48.135Z,1.87
2023-05-14T23:01:49.474Z,1.67
2023-05-14T23:04:51.005Z,1.63
2023-05-14T23:07:52.349Z,1.70
2023-05-14T23:10:53.646Z,2.10
2023-05-14T23:13:54.935Z,1.70
2023-05-14T23:16:56.248Z,1.75
2023-05-14T23:19:57.577Z,1.65
2023-05-14T23:22:58.933Z,1.58
2023-05-14T23:26:00.251Z,1.55
2023-05-14T23:29:01.576Z,1.80
2023-05-14T23:32:02.927Z,1.83
2023-05-14T23:35:04.256Z,1.77
2023-05-14T23:38:05.558Z,1.90
2023-05-14T23:41:06.856Z,1.45
2023-05-14T23:44:08.160Z,1.73
2023-05-14T23:47:09.474Z,1.90
2023-05-14T23:50:10.766Z,1.90
2023-05-14T23:53:12.062Z,1.80
2023-05-14T23:56:13.366Z,1.60
2023-05-14T23:59:14.679Z,1.77
